createdAt,value
2018-04-25T00:02:07.935Z,97.90
2018-04-25T00:04:35.378Z,97.80
2018-04-25T00:07:02.887Z,98.50
2018-04-25T00:09:30.352Z,97.70
2018-04-25T00:11:57.824Z,97.50
2018-04-25T00:14:25.311Z,97.30
2018-04-25T00:16:52.923Z,97.30
2018-04-25T00:19:20.375Z,97.00
2018-04-25T00:21:47.864Z,97.00
2018-04-25T00:24:15.336Z,97.30
2018-04-25T00:26:43.055Z,96.70
2018-04-25T00:29:10.542Z,96.80
2018-04-25T00:31:38.036Z,97.10
2018-04-25T00:34:06.250Z,97.40
2018-04-25T00:36:33.756Z,97.40
2018-04-25T00:39:01.361Z,97.40
2018-04-25T00:41:28.823Z,97.40
2018-04-25T00:43:56.288Z,97.70
2018-04-25T00:46:23.743Z,98.10
2018-04-25T00:48:51.291Z,98.80
2018-04-25T00:51:18.718Z,98.60
2018-04-25T00:53:47.024Z,98.40
2018-04-25T00:56:14.480Z,98.40
2018-04-25T00:58:41.995Z,98.30
2018-04-25T01:01:09.456Z,98.40
2018-04-25T01:03:36.985Z,98.40
2018-04-25T01:06:04.489Z,97.90
2018-04-25T01:08:32.716Z,98.20
2018-04-25T01:11:00.152Z,98.20
2018-04-25T01:13:27.616Z,97.80
2018-04-25T01:15:55.080Z,97.90
2018-04-25T01:18:22.573Z,97.70
2018-04-25T01:20:50.252Z,97.60
2018-04-25T01:23:24.623Z,98.20
2018-04-25T01:25:58.555Z,97.60
2018-04-25T01:28:26.090Z,97.40
2018-04-25T01:30:57.134Z,97.40
2018-04-25T01:33:39.479Z,97.40
2018-04-25T01:39:13.911Z,97.90
2018-04-25T01:41:42.891Z,97.80
2018-04-25T01:47:20.742Z,97.30
2018-04-25T01:49:58.802Z,97.40
2018-04-25T01:52:38.303Z,98.20
2018-04-25T01:55:17.729Z,97.70
2018-04-25T01:57:57.052Z,97.50
2018-04-25T02:00:37.132Z,97.80
2018-04-25T02:03:04.083Z,97.80
2018-04-25T02:05:31.632Z,97.50
2018-04-25T02:07:59.069Z,98.40
2018-04-25T02:10:26.574Z,97.70
2018-04-25T02:12:54.064Z,97.50
2018-04-25T02:15:22.278Z,97.60
2018-04-25T02:17:49.716Z,97.40
2018-04-25T02:20:17.254Z,97.80
2018-04-25T02:22:44.699Z,97.50
2018-04-25T02:25:13.676Z,97.40
2018-04-25T02:27:41.171Z,97.40
2018-04-25T02:30:09.413Z,97.50
2018-04-25T02:32:37.035Z,97.40
2018-04-25T02:35:04.490Z,97.50
2018-04-25T02:37:31.947Z,97.30
2018-04-25T02:39:59.466Z,97.30
2018-04-25T02:42:26.963Z,97.40
2018-04-25T02:44:54.397Z,97.80
2018-04-25T02:47:22.697Z,97.80
2018-04-25T02:49:50.128Z,97.70
2018-04-25T02:52:18.355Z,97.50
2018-04-25T02:54:45.831Z,97.40
2018-04-25T02:57:13.381Z,97.30
2018-04-25T02:59:40.834Z,97.50
2018-04-25T03:02:08.358Z,97.50
2018-04-25T03:04:35.868Z,97.50
2018-04-25T03:07:03.309Z,97.40
2018-04-25T03:09:30.862Z,97.50
2018-04-25T03:11:58.389Z,97.30
2018-04-25T03:14:25.923Z,97.20
2018-04-25T03:16:54.237Z,97.20
2018-04-25T03:19:21.647Z,97.20
2018-04-25T03:21:49.883Z,97.30
2018-04-25T03:24:17.401Z,97.30
2018-04-25T03:26:44.836Z,97.50
2018-04-25T03:29:13.098Z,97.50
2018-04-25T03:31:40.668Z,97.50
2018-04-25T03:34:08.904Z,97.30
2018-04-25T03:36:36.352Z,97.30
2018-04-25T03:39:03.840Z,97.30
2018-04-25T03:41:31.312Z,97.50
2018-04-25T03:43:58.750Z,97.50
2018-04-25T03:46:26.320Z,97.50
2018-04-25T03:48:53.878Z,97.50
2018-04-25T03:51:21.439Z,97.50
2018-04-25T03:53:48.903Z,97.50
2018-04-25T03:56:17.112Z,97.60
2018-04-25T03:58:44.579Z,97.50
2018-04-25T04:01:12.212Z,97.60
2018-04-25T04:03:40.532Z,97.70
2018-04-25T04:06:07.993Z,97.70
2018-04-25T04:08:35.444Z,97.60
2018-04-25T04:11:02.906Z,97.60
2018-04-25T04:13:30.442Z,97.60
2018-04-25T04:15:57.953Z,97.90
2018-04-25T04:18:25.417Z,98.30
2018-04-25T04:20:53.682Z,98.20
2018-04-25T04:23:21.161Z,98.20
2018-04-25T04:25:49.371Z,98.10
2018-04-25T04:28:16.835Z,98.10
2018-04-25T04:30:44.310Z,98.10
2018-04-25T04:33:11.849Z,98.30
2018-04-25T04:35:39.326Z,98.20
2018-04-25T04:38:07.010Z,98.50
2018-04-25T04:40:34.617Z,98.20
2018-04-25T04:43:02.050Z,98.60
2018-04-25T04:45:29.559Z,98.90
2018-04-25T04:47:57.111Z,99.20
2018-04-25T04:50:24.581Z,99.00
2018-04-25T04:52:52.067Z,99.40
2018-04-25T04:55:20.317Z,99.80
2018-04-25T04:57:47.889Z,99.80
2018-04-25T05:00:15.354Z,99.90
2018-04-25T05:02:43.567Z,99.90
2018-04-25T05:05:11.001Z,99.90
2018-04-25T05:07:38.516Z,99.90
2018-04-25T05:10:06.073Z,99.90
2018-04-25T05:12:33.554Z,99.80
2018-04-25T05:15:01.057Z,99.90
2018-04-25T05:17:28.540Z,99.80
2018-04-25T05:19:55.983Z,99.90
2018-04-25T05:22:23.447Z,99.90
2018-04-25T05:24:50.915Z,99.90
2018-04-25T05:27:18.400Z,99.90
2018-04-25T05:29:46.657Z,99.90
2018-04-25T05:32:14.273Z,99.90
2018-04-25T05:34:41.653Z,99.90
2018-04-25T05:37:09.123Z,99.90
2018-04-25T05:39:36.573Z,99.90
2018-04-25T05:42:04.204Z,99.90
2018-04-25T05:44:31.650Z,99.90
2018-04-25T05:46:59.116Z,99.90
2018-04-25T05:49:26.584Z,99.90
2018-04-25T05:51:54.134Z,99.90
2018-04-25T05:54:21.604Z,99.90
2018-04-25T05:56:49.078Z,99.90
2018-04-25T05:59:16.521Z,99.90
2018-04-25T06:01:44.060Z,99.90
2018-04-25T06:04:11.621Z,99.90
2018-04-25T06:06:39.075Z,99.90
2018-04-25T06:09:06.636Z,99.90
2018-04-25T06:11:34.079Z,99.90
2018-04-25T06:14:01.528Z,99.90
2018-04-25T06:16:29.787Z,99.90
2018-04-25T06:18:58.012Z,99.90
2018-04-25T06:21:25.467Z,99.90
2018-04-25T06:23:52.953Z,99.90
2018-04-25T06:26:20.395Z,99.90
2018-04-25T06:28:47.905Z,99.90
2018-04-25T06:31:16.103Z,99.90
2018-04-25T06:33:43.564Z,99.90
2018-04-25T06:36:11.022Z,99.90
2018-04-25T06:38:38.475Z,99.90
2018-04-25T06:41:05.971Z,99.90
2018-04-25T06:43:33.419Z,99.90
2018-04-25T06:46:00.900Z,99.90
2018-04-25T06:48:28.710Z,99.90
2018-04-25T06:50:56.143Z,99.90
2018-04-25T06:53:23.608Z,99.90
2018-04-25T06:55:51.099Z,99.90
2018-04-25T06:58:18.564Z,99.90
2018-04-25T07:00:46.027Z,99.90
2018-04-25T07:03:13.512Z,99.90
2018-04-25T07:05:41.006Z,99.90
2018-04-25T07:08:08.713Z,99.90
2018-04-25T07:10:36.151Z,99.90
2018-04-25T07:13:03.588Z,99.90
2018-04-25T07:15:31.051Z,99.90
2018-04-25T07:17:58.535Z,99.90
2018-04-25T07:20:26.004Z,99.90
2018-04-25T07:22:53.510Z,99.90
2018-04-25T07:25:20.948Z,99.90
2018-04-25T07:27:48.423Z,99.90
2018-04-25T07:30:16.088Z,99.90
2018-04-25T07:32:43.531Z,99.90
2018-04-25T07:35:11.047Z,99.90
2018-04-25T07:37:38.510Z,99.90
2018-04-25T07:40:05.975Z,99.90
2018-04-25T07:42:34.395Z,99.90
2018-04-25T07:45:02.007Z,99.90
2018-04-25T07:47:29.560Z,99.90
2018-04-25T07:49:57.019Z,99.90
2018-04-25T07:52:24.458Z,99.90
2018-04-25T07:54:51.923Z,99.90
2018-04-25T07:57:19.391Z,99.90
2018-04-25T07:59:46.856Z,99.90
2018-04-25T08:02:14.408Z,99.90
2018-04-25T08:04:41.895Z,99.90
2018-04-25T08:07:10.149Z,99.90
2018-04-25T08:09:37.682Z,99.90
2018-04-25T08:12:17.083Z,99.90
2018-04-25T08:14:56.339Z,99.90
2018-04-25T08:17:35.855Z,99.90
2018-04-25T08:20:15.118Z,99.90
2018-04-25T08:22:42.609Z,99.90
2018-04-25T08:25:11.640Z,99.90
2018-04-25T08:27:39.075Z,99.90
2018-04-25T08:30:06.608Z,99.90
2018-04-25T08:32:34.167Z,99.90
2018-04-25T08:35:01.649Z,99.90
2018-04-25T08:37:29.859Z,99.90
2018-04-25T08:39:57.305Z,99.90
2018-04-25T08:42:24.762Z,99.90
2018-04-25T08:44:52.280Z,99.90
2018-04-25T08:47:19.715Z,99.90
2018-04-25T08:49:47.183Z,99.90
2018-04-25T08:52:14.631Z,99.90
2018-04-25T08:54:42.107Z,99.90
2018-04-25T08:57:10.321Z,99.90
2018-04-25T08:59:37.801Z,99.90
2018-04-25T09:02:05.288Z,99.90
2018-04-25T09:04:32.789Z,99.90
2018-04-25T09:07:00.217Z,99.90
2018-04-25T09:09:28.434Z,99.90
2018-04-25T09:11:55.906Z,99.90
2018-04-25T09:14:23.349Z,99.70
2018-04-25T09:16:50.796Z,99.40
2018-04-25T09:19:18.280Z,97.30
2018-04-25T09:21:45.748Z,95.20
2018-04-25T09:24:13.216Z,95.10
2018-04-25T09:26:40.694Z,92.20
2018-04-25T09:29:08.915Z,93.30
2018-04-25T09:31:36.383Z,93.20
2018-04-25T09:34:05.414Z,95.30
2018-04-25T09:36:33.621Z,97.50
2018-04-25T09:39:01.123Z,97.50
2018-04-25T09:41:28.559Z,96.40
2018-04-25T09:43:56.004Z,97.30
2018-04-25T09:46:23.500Z,97.10
2018-04-25T09:48:50.958Z,96.80
2018-04-25T09:51:18.427Z,98.00
2018-04-25T09:53:46.684Z,96.40
2018-04-25T09:56:14.128Z,96.40
2018-04-25T09:58:41.592Z,96.40
2018-04-25T10:01:09.071Z,96.00
2018-04-25T10:03:42.845Z,93.30
2018-04-25T10:06:10.505Z,93.40
2018-04-25T10:08:37.988Z,92.20
2018-04-25T10:11:05.427Z,91.50
2018-04-25T10:13:32.879Z,87.30
2018-04-25T10:16:00.408Z,90.00
2018-04-25T10:18:27.835Z,82.90
2018-04-25T10:20:55.281Z,78.40
2018-04-25T10:23:23.627Z,71.80
2018-04-25T10:25:51.100Z,71.40
2018-04-25T10:28:18.608Z,77.20
2018-04-25T10:30:46.105Z,83.10
2018-04-25T10:33:14.303Z,81.30
2018-04-25T10:35:42.528Z,76.70
2018-04-25T10:38:10.014Z,76.60
2018-04-25T10:40:37.464Z,78.20
2018-04-25T10:43:04.913Z,82.20
2018-04-25T10:45:32.390Z,83.30
2018-04-25T10:47:59.828Z,82.00
2018-04-25T10:50:27.291Z,83.50
2018-04-25T10:52:54.745Z,90.40
2018-04-25T10:55:23.441Z,94.30
2018-04-25T10:57:51.602Z,95.70
2018-04-25T11:00:19.029Z,95.70
2018-04-25T11:02:46.514Z,96.20
2018-04-25T11:05:14.040Z,95.70
2018-04-25T11:07:41.514Z,94.10
2018-04-25T11:10:09.260Z,93.50
2018-04-25T11:12:36.720Z,94.30
2018-04-25T11:15:04.175Z,93.80
2018-04-25T11:17:31.675Z,94.10
2018-04-25T11:19:59.114Z,94.80
2018-04-25T11:22:27.363Z,95.10
2018-04-25T11:24:54.880Z,95.10
2018-04-25T11:27:22.340Z,94.10
2018-04-25T11:29:49.784Z,92.20
2018-04-25T11:32:17.888Z,89.80
2018-04-25T11:34:45.358Z,86.10
2018-04-25T11:37:12.801Z,84.80
2018-04-25T11:39:41.025Z,87.50
2018-04-25T11:42:08.469Z,87.50
2018-04-25T11:44:36.058Z,90.30
2018-04-25T11:47:03.541Z,90.30
2018-04-25T11:49:31.709Z,82.90
2018-04-25T11:51:59.995Z,83.50
2018-04-25T11:54:28.196Z,82.80
2018-04-25T11:56:55.680Z,82.70
2018-04-25T11:59:23.192Z,80.50
2018-04-25T12:01:50.633Z,79.70
2018-04-25T12:04:18.874Z,77.30
2018-04-25T12:06:46.365Z,77.40
2018-04-25T12:09:14.643Z,75.00
2018-04-25T12:11:42.851Z,70.10
2018-04-25T12:14:10.353Z,70.10
2018-04-25T12:16:37.842Z,73.70
2018-04-25T12:19:05.309Z,67.80
2018-04-25T12:21:32.788Z,69.40
2018-04-25T12:24:00.246Z,74.10
2018-04-25T12:26:27.728Z,77.00
2018-04-25T12:28:55.161Z,79.80
2018-04-25T12:31:22.627Z,80.30
2018-04-25T12:33:50.088Z,83.00
2018-04-25T12:36:17.559Z,82.40
2018-04-25T12:38:45.000Z,83.40
2018-04-25T12:41:12.449Z,84.70
2018-04-25T12:43:39.917Z,83.10
2018-04-25T12:46:07.378Z,81.20
2018-04-25T12:48:34.827Z,82.60
2018-04-25T12:51:02.322Z,81.10
2018-04-25T12:53:30.645Z,81.90
2018-04-25T12:55:58.120Z,81.60
2018-04-25T12:58:25.595Z,81.50
2018-04-25T13:00:53.086Z,81.20
2018-04-25T13:03:21.409Z,80.60
2018-04-25T13:05:48.883Z,80.60
2018-04-25T13:08:16.324Z,79.60
2018-04-25T13:10:43.855Z,80.90
2018-04-25T13:13:11.309Z,81.90
2018-04-25T13:15:38.741Z,83.80
2018-04-25T13:18:07.043Z,86.40
2018-04-25T13:20:34.602Z,86.40
2018-04-25T13:23:02.106Z,87.50
2018-04-25T13:25:29.542Z,85.80
2018-04-25T13:27:57.012Z,83.80
2018-04-25T13:30:24.515Z,83.20
2018-04-25T13:32:51.976Z,82.70
2018-04-25T13:35:19.503Z,79.00
2018-04-25T13:37:46.984Z,79.70
2018-04-25T13:40:16.181Z,84.10
2018-04-25T13:42:44.410Z,86.50
2018-04-25T13:45:11.848Z,86.60
2018-04-25T13:47:39.306Z,87.00
2018-04-25T13:50:06.786Z,90.00
2018-04-25T13:52:34.336Z,90.10
2018-04-25T13:55:01.870Z,90.40
2018-04-25T13:57:29.376Z,89.70
2018-04-25T13:59:56.873Z,89.50
2018-04-25T14:02:24.320Z,88.30
2018-04-25T14:04:51.894Z,84.30
2018-04-25T14:07:19.330Z,85.40
2018-04-25T14:09:46.786Z,81.10
2018-04-25T14:12:15.037Z,82.00
2018-04-25T14:14:42.477Z,82.00
2018-04-25T14:17:09.985Z,81.10
2018-04-25T14:19:37.453Z,81.40
2018-04-25T14:22:04.887Z,79.70
2018-04-25T14:24:33.125Z,79.50
2018-04-25T14:27:00.601Z,79.50
2018-04-25T14:29:28.069Z,80.80
2018-04-25T14:31:56.313Z,82.40
2018-04-25T14:34:23.758Z,82.40
2018-04-25T14:36:51.224Z,83.00
2018-04-25T14:39:18.746Z,81.90
2018-04-25T14:41:46.189Z,83.20
2018-04-25T14:44:13.652Z,83.80
2018-04-25T14:46:41.133Z,85.70
2018-04-25T14:49:08.678Z,87.10
2018-04-25T14:51:36.118Z,88.30
2018-04-25T14:54:03.622Z,89.00
2018-04-25T14:56:31.174Z,88.00
2018-04-25T14:58:58.818Z,86.00
2018-04-25T15:01:26.314Z,89.80
2018-04-25T15:03:53.771Z,86.80
2018-04-25T15:06:21.411Z,86.30
2018-04-25T15:08:48.915Z,86.90
2018-04-25T15:11:16.349Z,85.90
2018-04-25T15:13:43.814Z,87.70
2018-04-25T15:16:11.287Z,87.00
2018-04-25T15:18:39.605Z,85.20
2018-04-25T15:21:07.060Z,85.20
2018-04-25T15:23:34.563Z,85.80
2018-04-25T15:26:02.821Z,85.00
2018-04-25T15:28:30.322Z,85.00
2018-04-25T15:30:58.550Z,80.10
2018-04-25T15:33:25.992Z,80.00
2018-04-25T15:35:53.509Z,83.80
2018-04-25T15:38:20.944Z,78.90
2018-04-25T15:40:50.196Z,77.40
2018-04-25T15:43:18.046Z,77.40
2018-04-25T15:45:45.578Z,74.80
2018-04-25T15:48:13.814Z,75.10
2018-04-25T15:50:41.305Z,75.10
2018-04-25T15:53:09.603Z,76.30
2018-04-25T15:55:37.050Z,76.20
2018-04-25T15:58:04.797Z,76.40
2018-04-25T16:00:32.299Z,77.10
2018-04-25T16:02:59.781Z,79.90
2018-04-25T16:05:27.278Z,81.80
2018-04-25T16:07:55.486Z,80.10
2018-04-25T16:10:22.954Z,80.00
2018-04-25T16:12:50.453Z,78.90
2018-04-25T16:15:18.693Z,79.30
2018-04-25T16:17:46.162Z,79.60
2018-04-25T16:20:13.883Z,80.90
2018-04-25T16:22:41.721Z,80.90
2018-04-25T16:25:09.236Z,82.90
2018-04-25T16:27:36.893Z,81.70
2018-04-25T16:30:04.387Z,79.10
2018-04-25T16:32:31.847Z,80.50
2018-04-25T16:35:00.121Z,83.40
2018-04-25T16:37:28.444Z,84.10
2018-04-25T16:39:55.957Z,83.90
2018-04-25T16:42:24.288Z,83.70
2018-04-25T16:44:51.945Z,83.60
2018-04-25T16:47:19.465Z,83.80
2018-04-25T16:49:47.014Z,84.10
2018-04-25T16:52:15.238Z,86.70
2018-04-25T16:54:42.711Z,86.80
2018-04-25T16:57:10.303Z,82.80
2018-04-25T16:59:37.806Z,82.50
2018-04-25T17:02:06.084Z,80.10
2018-04-25T17:04:33.557Z,80.00
2018-04-25T17:07:01.113Z,80.10
2018-04-25T17:09:28.624Z,79.70
2018-04-25T17:11:56.841Z,76.70
2018-04-25T17:14:24.296Z,76.60
2018-04-25T17:16:51.744Z,74.90
2018-04-25T17:19:19.222Z,75.10
2018-04-25T17:21:46.683Z,75.50
2018-04-25T17:24:14.148Z,74.20
2018-04-25T17:26:41.609Z,76.40
2018-04-25T17:29:09.078Z,76.00
2018-04-25T17:31:36.539Z,75.70
2018-04-25T17:34:04.044Z,76.20
2018-04-25T17:36:32.011Z,73.90
2018-04-25T17:38:59.582Z,75.80
2018-04-25T17:41:27.063Z,75.90
2018-04-25T17:43:54.584Z,77.80
2018-04-25T17:46:22.811Z,80.70
2018-04-25T17:48:50.320Z,80.60
2018-04-25T17:51:17.774Z,81.00
2018-04-25T17:53:45.259Z,81.20
2018-04-25T17:56:12.748Z,82.60
2018-04-25T17:58:40.991Z,83.40
2018-04-25T18:01:08.468Z,84.20
2018-04-25T18:03:35.900Z,83.30
2018-04-25T18:06:03.409Z,83.80
2018-04-25T18:08:31.778Z,84.50
2018-04-25T18:11:00.020Z,85.60
2018-04-25T18:13:27.588Z,85.50
2018-04-25T18:15:55.387Z,83.90
2018-04-25T18:18:22.896Z,84.90
2018-04-25T18:20:50.558Z,84.80
2018-04-25T18:23:18.860Z,85.20
2018-04-25T18:25:46.514Z,85.10
2018-04-25T18:28:13.974Z,86.40
2018-04-25T18:30:41.440Z,85.60
2018-04-25T18:33:08.943Z,85.10
2018-04-25T18:35:36.406Z,84.80
2018-04-25T18:38:03.871Z,84.80
2018-04-25T18:40:31.345Z,84.00
2018-04-25T18:42:58.908Z,82.80
2018-04-25T18:45:26.455Z,82.60
2018-04-25T18:47:53.918Z,83.70
2018-04-25T18:50:21.378Z,85.00
2018-04-25T18:52:48.953Z,83.30
2018-04-25T18:55:17.191Z,84.60
2018-04-25T18:57:45.508Z,84.40
2018-04-25T19:00:13.867Z,84.90
2018-04-25T19:02:41.323Z,84.30
2018-04-25T19:05:08.782Z,84.30
2018-04-25T19:07:36.306Z,85.00
2018-04-25T19:10:03.799Z,86.20
2018-04-25T19:12:31.221Z,87.10
2018-04-25T19:14:58.694Z,88.80
2018-04-25T19:17:26.247Z,90.10
2018-04-25T19:19:53.720Z,89.60
2018-04-25T19:22:21.179Z,89.80
2018-04-25T19:24:48.663Z,89.90
2018-04-25T19:27:16.195Z,90.30
2018-04-25T19:29:43.658Z,90.60
2018-04-25T19:32:11.127Z,91.00
2018-04-25T19:34:38.604Z,90.60
2018-04-25T19:37:06.808Z,90.90
2018-04-25T19:39:34.285Z,90.90
2018-04-25T19:42:01.751Z,91.50
2018-04-25T19:44:29.240Z,91.60
2018-04-25T19:46:56.721Z,91.60
2018-04-25T19:49:24.301Z,91.50
2018-04-25T19:51:51.756Z,92.00
2018-04-25T19:54:19.286Z,92.50
2018-04-25T19:56:47.512Z,92.30
2018-04-25T19:59:15.010Z,92.20
2018-04-25T20:01:43.323Z,92.60
2018-04-25T20:04:10.935Z,92.60
2018-04-25T20:06:38.393Z,93.10
2018-04-25T20:09:05.839Z,93.40
2018-04-25T20:11:33.294Z,93.60
2018-04-25T20:14:01.129Z,93.40
2018-04-25T20:16:28.617Z,93.80
2018-04-25T20:18:56.176Z,92.90
2018-04-25T20:21:23.625Z,91.80
2018-04-25T20:23:51.387Z,92.70
2018-04-25T20:26:19.016Z,91.80
2018-04-25T20:28:46.468Z,93.10
2018-04-25T20:31:13.940Z,92.50
2018-04-25T20:33:41.416Z,92.90
2018-04-25T20:36:08.868Z,93.30
2018-04-25T20:38:36.369Z,92.10
2018-04-25T20:41:04.607Z,92.00
2018-04-25T20:43:32.090Z,91.90
2018-04-25T20:45:59.645Z,91.90
2018-04-25T20:48:27.151Z,91.90
2018-04-25T20:50:54.598Z,91.90
2018-04-25T20:53:22.133Z,91.90
2018-04-25T20:55:50.359Z,90.80
2018-04-25T20:58:17.813Z,90.80
2018-04-25T21:00:45.288Z,89.60
2018-04-25T21:03:13.018Z,88.40
2018-04-25T21:05:40.883Z,90.00
2018-04-25T21:08:08.546Z,87.30
2018-04-25T21:10:36.012Z,88.00
2018-04-25T21:13:03.480Z,87.30
2018-04-25T21:15:30.965Z,88.20
2018-04-25T21:17:58.415Z,88.70
2018-04-25T21:20:25.958Z,89.30
2018-04-25T21:22:53.435Z,89.70
2018-04-25T21:25:20.878Z,89.20
2018-04-25T21:27:48.371Z,88.80
2018-04-25T21:30:16.640Z,86.90
2018-04-25T21:32:44.864Z,88.00
2018-04-25T21:35:12.344Z,87.20
2018-04-25T21:37:39.804Z,86.60
2018-04-25T21:40:07.354Z,85.70
2018-04-25T21:42:34.817Z,86.60
2018-04-25T21:45:02.347Z,86.20
2018-04-25T21:47:29.722Z,87.50
2018-04-25T21:49:57.197Z,86.60
2018-04-25T21:52:24.661Z,87.10
2018-04-25T21:54:52.163Z,86.80
2018-04-25T21:57:19.626Z,86.50
2018-04-25T21:59:47.061Z,86.90
2018-04-25T22:02:14.641Z,86.50
2018-04-25T22:04:42.155Z,87.20
2018-04-25T22:07:09.701Z,86.80
2018-04-25T22:09:37.190Z,87.10
2018-04-25T22:12:05.452Z,87.00
2018-04-25T22:14:33.054Z,87.00
2018-04-25T22:17:00.495Z,87.80
2018-04-25T22:19:27.952Z,86.50
2018-04-25T22:21:55.435Z,87.90
2018-04-25T22:24:22.879Z,87.50
2018-04-25T22:26:50.325Z,88.30
2018-04-25T22:29:17.895Z,87.90
2018-04-25T22:31:45.338Z,88.20
2018-04-25T22:34:12.820Z,87.00
2018-04-25T22:36:40.294Z,88.00
2018-04-25T22:39:07.764Z,88.40
2018-04-25T22:41:35.243Z,88.70
2018-04-25T22:44:03.455Z,89.70
2018-04-25T22:46:30.910Z,89.70
2018-04-25T22:48:58.381Z,89.90
2018-04-25T22:51:25.846Z,89.30
2018-04-25T22:53:53.362Z,90.10
2018-04-25T22:56:20.815Z,90.10
2018-04-25T22:58:49.050Z,90.60
2018-04-25T23:01:16.524Z,90.60
2018-04-25T23:03:43.981Z,90.20
2018-04-25T23:06:11.466Z,90.20
2018-04-25T23:08:38.946Z,90.40
2018-04-25T23:11:06.400Z,91.10
2018-04-25T23:13:33.854Z,90.80
2018-04-25T23:16:01.311Z,90.30
2018-04-25T23:18:28.874Z,91.40
2018-04-25T23:20:56.347Z,90.80
2018-04-25T23:23:23.821Z,91.30
2018-04-25T23:25:51.737Z,91.10
2018-04-25T23:28:19.215Z,90.80
2018-04-25T23:30:46.767Z,90.70
2018-04-25T23:33:14.225Z,91.90
2018-04-25T23:35:41.674Z,91.50
2018-04-25T23:38:09.128Z,91.60
2018-04-25T23:40:36.580Z,91.30
2018-04-25T23:43:04.067Z,92.00
2018-04-25T23:45:31.541Z,90.90
2018-04-25T23:47:59.067Z,92.40
2018-04-25T23:50:26.511Z,92.00
2018-04-25T23:52:53.965Z,92.80
2018-04-25T23:55:21.432Z,92.60
2018-04-25T23:57:48.901Z,92.80
